createdAt,value
2018-12-26T18:48:17.293Z,28.60
2018-12-26T18:49:17.272Z,29.80
2018-12-26T18:50:17.272Z,33.80
2018-12-26T18:51:17.272Z,33.00
2018-12-26T18:52:17.230Z,38.30
2018-12-26T18:53:17.222Z,42.80
2018-12-26T18:54:17.215Z,48.00
2018-12-26T18:55:17.198Z,55.00
2018-12-26T18:56:17.190Z,46.80
2018-12-26T18:57:17.314Z,56.30
2018-12-26T18:58:17.179Z,51.70
2018-12-26T18:59:17.174Z,56.80
2018-12-26T19:00:17.147Z,52.40
2018-12-26T19:01:17.138Z,61.20
2018-12-26T19:02:17.171Z,53.90
2018-12-26T19:03:17.156Z,53.10
2018-12-26T19:04:17.112Z,65.80
2018-12-26T19:05:17.097Z,57.50
2018-12-26T19:06:17.153Z,59.20
2018-12-26T19:07:17.071Z,58.50
2018-12-26T19:08:17.086Z,57.40
2018-12-26T19:09:17.045Z,66.70
2018-12-26T19:10:17.074Z,63.90
2018-12-26T19:11:17.053Z,68.90
2018-12-26T19:12:17.153Z,63.80
2018-12-26T19:13:17.063Z,69.40
2018-12-26T19:14:17.024Z,73.60
2018-12-26T19:15:17.000Z,76.00
2018-12-26T19:16:16.978Z,84.00
2018-12-26T19:17:16.972Z,82.00
2018-12-26T19:18:16.959Z,69.50
2018-12-26T19:19:16.960Z,90.00
2018-12-26T19:20:16.938Z,79.00
2018-12-26T19:21:16.928Z,88.90
2018-12-26T19:22:18.717Z,84.70
2018-12-26T19:23:16.921Z,117.80
2018-12-26T19:24:16.939Z,96.60
2018-12-26T19:25:16.884Z,91.40
2018-12-26T19:26:16.865Z,82.00
2018-12-26T19:27:16.867Z,85.30
2018-12-26T19:28:16.850Z,83.40
2018-12-26T19:29:16.859Z,89.30
2018-12-26T19:30:16.853Z,100.60
2018-12-26T19:31:16.823Z,92.40
2018-12-26T19:32:16.812Z,103.70
2018-12-26T19:33:16.800Z,103.30
2018-12-26T19:34:16.821Z,132.20
2018-12-26T19:35:16.829Z,100.70
2018-12-26T19:36:16.796Z,129.90
2018-12-26T19:37:16.752Z,129.70
2018-12-26T19:38:16.806Z,112.40
2018-12-26T19:39:16.746Z,98.80
2018-12-26T19:40:16.728Z,109.50
2018-12-26T19:41:16.776Z,108.70
2018-12-26T19:42:16.701Z,116.70
2018-12-26T19:43:16.746Z,108.50
2018-12-26T19:44:16.696Z,99.40
2018-12-26T19:45:16.683Z,117.00
2018-12-26T19:46:16.696Z,104.90
2018-12-26T19:47:16.651Z,98.30
2018-12-26T19:48:16.664Z,100.50
2018-12-26T19:49:16.630Z,120.90
2018-12-26T19:50:16.619Z,110.00
2018-12-26T19:51:16.604Z,121.00
2018-12-26T19:52:16.618Z,96.70
2018-12-26T19:53:16.603Z,117.60
2018-12-26T19:54:16.574Z,108.80
2018-12-26T19:55:16.567Z,111.00
2018-12-26T19:56:16.582Z,95.10
2018-12-26T19:57:16.565Z,99.70
2018-12-26T19:58:16.542Z,109.60
2018-12-26T19:59:16.529Z,96.40
2018-12-26T20:00:16.550Z,103.80
2018-12-26T20:01:16.506Z,93.70
2018-12-26T20:02:16.522Z,81.00
2018-12-26T20:03:16.493Z,82.40
2018-12-26T20:04:16.473Z,93.00
2018-12-26T20:05:16.478Z,83.90
2018-12-26T20:06:16.463Z,96.70
2018-12-26T20:07:16.479Z,90.30
2018-12-26T20:08:16.434Z,92.50
2018-12-26T20:09:16.426Z,87.30
2018-12-26T20:10:16.459Z,98.40
2018-12-26T20:11:16.448Z,88.60
2018-12-26T20:12:16.446Z,94.80
2018-12-26T20:13:16.431Z,147.20
2018-12-26T20:14:16.450Z,102.70
2018-12-26T20:15:16.377Z,91.90
2018-12-26T20:16:16.377Z,103.50
2018-12-26T20:17:16.336Z,109.80
2018-12-26T20:18:17.349Z,110.50
2018-12-26T20:19:16.315Z,104.20
2018-12-26T20:20:16.333Z,117.80
2018-12-26T20:21:16.297Z,120.90
2018-12-26T20:22:16.394Z,115.50
2018-12-26T20:23:16.410Z,108.40
2018-12-26T20:24:16.455Z,92.60
2018-12-26T20:25:16.248Z,102.80
2018-12-26T20:26:16.242Z,97.60
2018-12-26T20:27:16.252Z,102.30
2018-12-26T20:28:16.272Z,80.40
2018-12-26T20:29:16.456Z,98.20
2018-12-26T20:30:16.878Z,90.80
2018-12-26T20:31:16.188Z,84.50
2018-12-26T20:32:16.261Z,107.10
2018-12-26T20:33:16.923Z,91.70
2018-12-26T20:34:16.195Z,99.00
2018-12-26T20:35:16.167Z,97.30
2018-12-26T20:36:16.166Z,104.00
2018-12-26T20:37:16.217Z,92.10
2018-12-26T20:38:16.135Z,112.30
2018-12-26T20:39:16.153Z,91.80
2018-12-26T20:40:16.163Z,116.90
2018-12-26T20:41:16.094Z,104.50
2018-12-26T20:42:16.259Z,104.50
2018-12-26T20:43:16.174Z,107.50
2018-12-26T20:44:16.053Z,91.70
2018-12-26T20:45:16.119Z,88.30
2018-12-26T20:46:16.044Z,97.20
2018-12-26T20:47:16.107Z,100.40
2018-12-26T20:48:16.143Z,98.30
2018-12-26T20:49:16.001Z,91.00
2018-12-26T20:50:15.991Z,96.90
2018-12-26T20:51:16.527Z,123.50
2018-12-26T20:52:16.038Z,103.50
2018-12-26T20:53:16.021Z,94.90
2018-12-26T20:54:15.948Z,103.50
2018-12-26T20:55:15.973Z,91.60
2018-12-26T20:56:15.924Z,106.60
2018-12-26T20:57:15.941Z,100.40
2018-12-26T20:58:16.200Z,98.30
2018-12-26T20:59:15.893Z,99.60
2018-12-26T21:00:15.891Z,77.80
2018-12-26T21:01:15.964Z,84.30
2018-12-26T21:02:16.019Z,82.70
2018-12-26T21:03:16.144Z,98.20
2018-12-26T21:04:15.855Z,83.60
2018-12-26T21:05:15.865Z,88.60
2018-12-26T21:06:15.863Z,87.90
2018-12-26T21:07:15.867Z,96.80
2018-12-26T21:08:15.853Z,131.20
2018-12-26T21:09:15.794Z,94.30
2018-12-26T21:10:15.786Z,95.70
2018-12-26T21:11:15.777Z,82.20
2018-12-26T21:12:15.762Z,78.80
2018-12-26T21:13:15.758Z,88.20
2018-12-26T21:14:15.758Z,93.50
2018-12-26T21:15:15.772Z,74.10
2018-12-26T21:16:15.728Z,83.70
2018-12-26T21:17:15.702Z,104.00
2018-12-26T21:18:15.707Z,90.00
2018-12-26T21:19:15.705Z,98.50
2018-12-26T21:20:15.752Z,110.60
2018-12-26T21:21:15.666Z,87.50
2018-12-26T21:22:15.663Z,115.30
2018-12-26T21:23:15.645Z,96.40
2018-12-26T21:24:15.676Z,109.10
2018-12-26T21:25:15.627Z,95.70
2018-12-26T21:26:15.611Z,98.40
2018-12-26T21:27:15.612Z,138.20
2018-12-26T21:28:15.602Z,90.80
2018-12-26T21:29:15.607Z,95.60
2018-12-26T21:30:15.629Z,96.60
2018-12-26T21:31:15.614Z,89.90
2018-12-26T21:32:15.549Z,106.00
2018-12-26T21:33:15.535Z,112.40
2018-12-26T21:34:15.536Z,90.00
2018-12-26T21:35:15.518Z,150.70
2018-12-26T21:36:15.536Z,106.10
2018-12-26T21:37:15.510Z,109.60
2018-12-26T21:38:15.488Z,116.20
2018-12-26T21:39:15.488Z,101.90
2018-12-26T21:40:15.472Z,94.70
2018-12-26T21:41:15.481Z,91.00
2018-12-26T21:42:15.453Z,100.60
2018-12-26T21:43:15.443Z,99.70
2018-12-26T21:44:15.438Z,100.80
2018-12-26T21:45:15.418Z,79.30
2018-12-26T21:46:15.453Z,93.10
2018-12-26T21:47:15.397Z,100.40
2018-12-26T21:48:15.427Z,97.20
2018-12-26T21:49:15.397Z,110.20
2018-12-26T21:50:15.374Z,97.10
2018-12-26T21:51:15.371Z,86.30
2018-12-26T21:52:15.373Z,93.90
2018-12-26T21:53:15.333Z,87.80
2018-12-26T21:54:15.333Z,102.70
2018-12-26T21:55:15.312Z,96.10
2018-12-26T21:56:15.301Z,92.80
2018-12-26T21:57:15.287Z,98.00
2018-12-26T21:58:15.306Z,95.60
2018-12-26T21:59:15.266Z,79.60
2018-12-26T22:00:15.273Z,105.40
2018-12-26T22:01:15.251Z,89.50
2018-12-26T22:02:22.217Z,114.40
2018-12-26T22:03:16.253Z,91.00
2018-12-26T22:04:15.220Z,90.90
2018-12-26T22:05:15.212Z,99.20
2018-12-26T22:06:15.205Z,112.80
2018-12-26T22:07:15.184Z,104.10
2018-12-26T22:08:15.185Z,104.30
2018-12-26T22:09:15.190Z,109.00
2018-12-26T22:10:15.157Z,103.00
2018-12-26T22:11:15.154Z,100.00
2018-12-26T22:12:15.151Z,106.30
2018-12-26T22:13:15.129Z,118.30
2018-12-26T22:14:15.134Z,124.30
2018-12-26T22:15:15.105Z,105.00
2018-12-26T22:16:15.102Z,117.20
2018-12-26T22:17:15.087Z,122.90
2018-12-26T22:18:15.076Z,131.80
2018-12-26T22:19:15.093Z,138.50
2018-12-26T22:20:15.051Z,106.10
2018-12-26T22:21:15.050Z,115.70
2018-12-26T22:22:15.052Z,125.40
2018-12-26T22:23:15.169Z,127.60
2018-12-26T22:24:15.033Z,133.70
2018-12-26T22:25:15.039Z,112.20
2018-12-26T22:26:15.022Z,111.70
2018-12-26T22:27:14.986Z,107.50
2018-12-26T22:28:14.970Z,117.50
2018-12-26T22:29:15.060Z,122.20
2018-12-26T22:30:14.998Z,139.40
2018-12-26T22:31:14.946Z,132.50
2018-12-26T22:32:14.924Z,133.80
2018-12-26T22:33:14.914Z,129.10
2018-12-26T22:34:14.909Z,126.10
2018-12-26T22:35:14.898Z,122.60
2018-12-26T22:36:14.907Z,119.40
2018-12-26T22:37:14.874Z,142.10
2018-12-26T22:38:14.869Z,140.30
2018-12-26T22:39:14.880Z,125.40
2018-12-26T22:40:14.848Z,110.60
2018-12-26T22:41:14.865Z,141.90
2018-12-26T22:42:14.823Z,209.90
2018-12-26T22:43:14.829Z,130.40
2018-12-26T22:44:15.542Z,146.60
2018-12-26T22:45:14.806Z,123.70
2018-12-26T22:46:14.801Z,142.90
2018-12-26T22:47:14.796Z,179.00
2018-12-26T22:48:14.764Z,127.20
2018-12-26T22:49:14.758Z,118.00
2018-12-26T22:50:14.741Z,133.40
2018-12-26T22:51:14.762Z,151.10
2018-12-26T22:52:14.749Z,143.00
2018-12-26T22:53:14.705Z,154.90
2018-12-26T22:54:14.700Z,136.50
2018-12-26T22:55:14.699Z,131.70
2018-12-26T22:56:14.672Z,139.20
2018-12-26T22:57:14.676Z,166.50
2018-12-26T22:58:14.675Z,123.50
2018-12-26T22:59:14.656Z,141.40
2018-12-26T23:00:14.651Z,155.00
2018-12-26T23:01:14.620Z,144.40
2018-12-26T23:02:14.615Z,152.20
2018-12-26T23:03:14.622Z,141.10
2018-12-26T23:04:14.613Z,162.60
2018-12-26T23:05:14.580Z,157.50
2018-12-26T23:06:14.573Z,147.20
2018-12-26T23:07:14.565Z,169.50
2018-12-26T23:08:14.573Z,157.30
2018-12-26T23:09:14.538Z,161.50
2018-12-26T23:10:14.588Z,125.90
2018-12-26T23:11:14.519Z,140.60
2018-12-26T23:12:14.514Z,136.70
2018-12-26T23:13:14.534Z,183.60
2018-12-26T23:14:14.485Z,160.20
2018-12-26T23:15:14.475Z,171.10
2018-12-26T23:16:14.482Z,158.00
2018-12-26T23:17:14.452Z,139.90
2018-12-26T23:18:14.441Z,154.50
2018-12-26T23:19:14.494Z,194.20
2018-12-26T23:20:14.423Z,152.30
2018-12-26T23:21:14.421Z,176.80
2018-12-26T23:22:14.402Z,167.60
2018-12-26T23:23:14.391Z,210.30
2018-12-26T23:24:14.417Z,165.80
2018-12-26T23:25:14.392Z,191.60
2018-12-26T23:26:14.389Z,188.50
2018-12-26T23:27:14.381Z,187.80
2018-12-26T23:28:14.347Z,154.90
2018-12-26T23:29:14.331Z,175.90
2018-12-26T23:30:14.349Z,205.90
2018-12-26T23:31:14.320Z,121.50
2018-12-26T23:32:14.319Z,178.10
2018-12-26T23:33:14.295Z,170.90
2018-12-26T23:34:14.320Z,260.10
2018-12-26T23:35:14.304Z,191.50
2018-12-26T23:36:14.254Z,192.60
2018-12-26T23:37:14.254Z,159.10
2018-12-26T23:38:14.237Z,176.00
2018-12-26T23:39:14.230Z,165.80
2018-12-26T23:40:14.225Z,170.60
2018-12-26T23:41:14.239Z,206.70
2018-12-26T23:42:14.195Z,203.40
2018-12-26T23:43:14.185Z,164.30
2018-12-26T23:44:14.179Z,180.40
2018-12-26T23:45:14.171Z,180.30
2018-12-26T23:46:14.148Z,180.50
2018-12-26T23:47:14.163Z,165.70
2018-12-26T23:48:14.131Z,201.00
2018-12-26T23:49:14.156Z,237.30
2018-12-26T23:50:14.131Z,209.30
2018-12-26T23:51:14.141Z,187.30
2018-12-26T23:52:14.122Z,193.10
2018-12-26T23:53:14.091Z,169.50
2018-12-26T23:54:14.089Z,194.70
2018-12-26T23:55:14.088Z,224.40
2018-12-26T23:56:14.055Z,199.40
2018-12-26T23:57:14.036Z,208.90
2018-12-26T23:58:14.055Z,213.00
2018-12-26T23:59:14.038Z,250.30
